Terminal Aerodrome Forecast
Issued by NWS

Home | Current Version | Previous Version | Text Only | Print | Product List | Glossary On
Versions: 1 2 3 4 5 6 7 8 9 10 11 12 13 14 15
345
FTUS45 KTFX 281150
TAFBZN
TAF
KBZN 281150Z 2812/2912 VRB05KT P6SM SKC
     FM282000 35006KT P6SM VCTS SCT080CB SCT150 PROB30 2822/2903
      -TSRA BKN080CB
     FM290300 15005KT P6SM BKN150=

USA.gov is the U.S. government's official web portal to all federal, state and local government web resources and services.